XLE780 DNAA-YPPH
Flight info
| Callsign | XLE780 |
|---|---|
| Flight time | N/A |
| Altitude | 33000 |
| Route | IKVAD1S IKVAD DCT AMTIR UT457 BUMGI UT475 MPK UR984 UGBEL UL434 KGI UB531 MEVAR/N0494F350 UB531 MV UW305 ITGOP UA401 KINAN UB790 TIKAP/N0486F370 UB790 OKDOP UA400 RASMA DCT ATLOP UT595 SOLIT/N0483F390 DCT 26S082E 29S092E 31S104E DCT OPEGA T12 KAGMI |
| Aircraft | B772/H-SDE2E3FGHIJ5LORVWXY/LB1D1 |
Departure
| Time | 2026-05-03 21:43 |
|---|---|
| Airport | Nnamdi Azikiwe International Airport (DNAA) |
Arrival
| Time | N/A |
|---|---|
| Airport | Perth International Airport (YPPH) |
| Time | Latitude | Longitude | Altitude | Speed | Heading |
|---|---|---|---|---|---|
| 2026-05-03 21:27 | 9.00840 | 7.26740 | 1135 ft | 0 kts | 2° |
| 2026-05-03 21:35 | 9.00838 | 7.26740 | 1128 ft | 3 kts | 2° |
| 2026-05-03 21:35 | 9.00819 | 7.26740 | 1134 ft | 3 kts | 2° |
| 2026-05-03 21:35 | 9.00800 | 7.26739 | 1132 ft | 3 kts | 2° |
| 2026-05-03 21:36 | 9.00781 | 7.26738 | 1133 ft | 3 kts | 2° |
| 2026-05-03 21:36 | 9.00763 | 7.26738 | 1133 ft | 3 kts | 2° |
| 2026-05-03 21:36 | 9.00756 | 7.26738 | 1133 ft | 0 kts | 2° |
| 2026-05-03 21:38 | 9.00765 | 7.26737 | 1128 ft | 7 kts | 355° |
| 2026-05-03 21:38 | 9.00849 | 7.26681 | 1134 ft | 18 kts | 337° |
| 2026-05-03 21:39 | 9.00967 | 7.26721 | 1113 ft | 19 kts | 33° |
| 2026-05-03 21:39 | 9.01073 | 7.26797 | 1113 ft | 19 kts | 35° |
| 2026-05-03 21:39 | 9.01178 | 7.26874 | 1134 ft | 19 kts | 36° |
| 2026-05-03 21:39 | 9.01285 | 7.26950 | 1131 ft | 19 kts | 35° |
| 2026-05-03 21:40 | 9.01392 | 7.27025 | 1134 ft | 19 kts | 35° |
| 2026-05-03 21:40 | 9.01498 | 7.27101 | 1135 ft | 19 kts | 35° |
| 2026-05-03 21:40 | 9.01607 | 7.27174 | 1134 ft | 19 kts | 32° |
| 2026-05-03 21:40 | 9.01712 | 7.27252 | 1134 ft | 19 kts | 35° |
| 2026-05-03 21:41 | 9.01821 | 7.27326 | 1136 ft | 19 kts | 33° |
| 2026-05-03 21:41 | 9.01937 | 7.27335 | 1137 ft | 19 kts | 315° |
| 2026-05-03 21:41 | 9.01979 | 7.27272 | 1138 ft | 4 kts | 287° |
| 2026-05-03 21:41 | 9.01975 | 7.27242 | 1137 ft | 4 kts | 250° |
| 2026-05-03 21:42 | 9.01943 | 7.27209 | 1135 ft | 18 kts | 218° |
| 2026-05-03 21:42 | 9.01628 | 7.26988 | 1136 ft | 92 kts | 215° |
| 2026-05-03 21:42 | 9.00904 | 7.26478 | 1112 ft | 160 kts | 215° |
| 2026-05-03 21:42 | 8.99837 | 7.25727 | 1290 ft | 198 kts | 214° |
| 2026-05-03 21:43 | 8.98729 | 7.24945 | 2050 ft | 189 kts | 210° |
| 2026-05-03 21:43 | 8.97499 | 7.24456 | 2640 ft | 199 kts | 184° |
| 2026-05-03 21:43 | 8.96172 | 7.24597 | 2761 ft | 214 kts | 157° |
| 2026-05-03 21:43 | 8.94999 | 7.25555 | 2816 ft | 227 kts | 132° |
| 2026-05-03 21:44 | 8.93922 | 7.26796 | 3027 ft | 237 kts | 133° |
| 2026-05-03 21:44 | 8.92804 | 7.28080 | 3305 ft | 249 kts | 133° |
| 2026-05-03 21:44 | 8.91653 | 7.29400 | 3668 ft | 255 kts | 132° |
| 2026-05-03 21:44 | 8.90461 | 7.30764 | 4025 ft | 265 kts | 132° |
| 2026-05-03 21:45 | 8.89193 | 7.32206 | 4264 ft | 280 kts | 132° |
| 2026-05-03 21:45 | 8.87876 | 7.33700 | 4684 ft | 288 kts | 132° |
| 2026-05-03 21:45 | 8.86532 | 7.35221 | 5222 ft | 291 kts | 131° |
| 2026-05-03 21:45 | 8.85183 | 7.36743 | 5905 ft | 289 kts | 130° |
| 2026-05-03 21:46 | 8.83834 | 7.38263 | 6465 ft | 290 kts | 130° |
| 2026-05-03 21:46 | 8.82482 | 7.39785 | 7041 ft | 291 kts | 129° |
| 2026-05-03 21:46 | 8.81141 | 7.41292 | 7572 ft | 292 kts | 129° |
| 2026-05-03 21:46 | 8.79761 | 7.42843 | 8106 ft | 294 kts | 129° |
| 2026-05-03 21:47 | 8.78408 | 7.44360 | 8629 ft | 295 kts | 128° |
| 2026-05-03 21:47 | 8.77035 | 7.45900 | 9173 ft | 295 kts | 128° |
| 2026-05-03 21:47 | 8.75657 | 7.47446 | 9745 ft | 296 kts | 128° |
| 2026-05-03 21:47 | 8.74268 | 7.49004 | 10176 ft | 300 kts | 128° |
| 2026-05-03 21:48 | 8.72834 | 7.50617 | 10298 ft | 317 kts | 128° |
| 2026-05-03 21:48 | 8.72176 | 7.51358 | 10362 ft | 323 kts | 128° |
| 2026-05-03 21:48 | 8.71167 | 7.52490 | 10441 ft | 335 kts | 128° |
| 2026-05-03 21:48 | 8.69571 | 7.54279 | 10585 ft | 351 kts | 128° |
| 2026-05-03 21:49 | 8.68105 | 7.56290 | 10773 ft | 360 kts | 116° |
| 2026-05-03 21:49 | 8.67083 | 7.58615 | 11142 ft | 364 kts | 105° |
| 2026-05-03 21:49 | 8.66404 | 7.61054 | 11548 ft | 367 kts | 102° |
| 2026-05-03 21:49 | 8.65751 | 7.63563 | 12052 ft | 370 kts | 102° |
| 2026-05-03 21:50 | 8.65103 | 7.66056 | 12605 ft | 372 kts | 102° |
| 2026-05-03 21:50 | 8.64441 | 7.68589 | 13149 ft | 374 kts | 102° |
| 2026-05-03 21:50 | 8.63770 | 7.71142 | 13653 ft | 377 kts | 102° |
| 2026-05-03 21:50 | 8.63090 | 7.73713 | 14093 ft | 380 kts | 102° |
| 2026-05-03 21:51 | 8.62399 | 7.76315 | 14508 ft | 384 kts | 102° |
| 2026-05-03 21:51 | 8.61705 | 7.78922 | 14949 ft | 386 kts | 102° |
| 2026-05-03 21:51 | 8.61001 | 7.81558 | 15382 ft | 389 kts | 102° |
| 2026-05-03 21:51 | 8.60293 | 7.84206 | 15804 ft | 392 kts | 102° |
| 2026-05-03 21:52 | 8.59580 | 7.86871 | 16227 ft | 395 kts | 102° |
| 2026-05-03 21:52 | 8.58858 | 7.89572 | 16641 ft | 398 kts | 102° |
| 2026-05-03 21:52 | 8.58133 | 7.92280 | 17042 ft | 401 kts | 103° |
| 2026-05-03 21:52 | 8.57402 | 7.95008 | 17453 ft | 403 kts | 103° |
| 2026-05-03 21:53 | 8.56667 | 7.97752 | 17861 ft | 406 kts | 103° |
| 2026-05-03 21:53 | 8.55936 | 8.00482 | 18237 ft | 409 kts | 103° |
| 2026-05-03 21:53 | 8.55189 | 8.03267 | 18577 ft | 412 kts | 103° |
| 2026-05-03 21:53 | 8.54438 | 8.06069 | 18897 ft | 415 kts | 103° |
| 2026-05-03 21:54 | 8.53680 | 8.08894 | 19218 ft | 418 kts | 103° |
| 2026-05-03 21:54 | 8.52919 | 8.11732 | 19547 ft | 420 kts | 103° |
| 2026-05-03 21:54 | 8.52151 | 8.14592 | 19860 ft | 423 kts | 103° |
| 2026-05-03 21:54 | 8.51378 | 8.17472 | 20164 ft | 426 kts | 103° |
| 2026-05-03 21:55 | 8.50600 | 8.20371 | 20473 ft | 429 kts | 103° |
| 2026-05-03 21:55 | 8.49816 | 8.23288 | 20788 ft | 431 kts | 104° |
| 2026-05-03 21:55 | 8.49027 | 8.26223 | 21089 ft | 434 kts | 104° |
| 2026-05-03 21:55 | 8.48233 | 8.29177 | 21381 ft | 437 kts | 104° |
| 2026-05-03 21:56 | 8.47433 | 8.32152 | 21672 ft | 439 kts | 104° |
| 2026-05-03 21:56 | 8.46630 | 8.35137 | 21967 ft | 442 kts | 104° |
| 2026-05-03 21:56 | 8.45821 | 8.38146 | 22248 ft | 444 kts | 104° |
| 2026-05-03 21:56 | 8.45019 | 8.41126 | 22527 ft | 447 kts | 104° |
| 2026-05-03 21:57 | 8.44201 | 8.44162 | 22811 ft | 449 kts | 104° |
| 2026-05-03 21:57 | 8.43377 | 8.47221 | 23076 ft | 452 kts | 104° |
| 2026-05-03 21:57 | 8.42551 | 8.50289 | 23339 ft | 454 kts | 104° |
| 2026-05-03 21:57 | 8.41717 | 8.53382 | 23573 ft | 457 kts | 104° |
| 2026-05-03 21:58 | 8.40878 | 8.56497 | 23802 ft | 459 kts | 104° |
| 2026-05-03 21:58 | 8.40033 | 8.59631 | 23850 ft | 466 kts | 105° |
| 2026-05-03 21:58 | 8.39176 | 8.62807 | 23883 ft | 473 kts | 105° |
| 2026-05-03 21:58 | 8.38307 | 8.66032 | 23932 ft | 479 kts | 105° |
| 2026-05-03 21:59 | 8.37436 | 8.69263 | 23974 ft | 485 kts | 105° |
| 2026-05-03 21:59 | 8.36547 | 8.72556 | 24062 ft | 489 kts | 105° |
| 2026-05-03 21:59 | 8.35649 | 8.75879 | 24242 ft | 490 kts | 105° |
| 2026-05-03 21:59 | 8.34752 | 8.79196 | 24463 ft | 491 kts | 105° |
| 2026-05-03 22:00 | 8.33849 | 8.82528 | 24646 ft | 493 kts | 105° |
| 2026-05-03 22:00 | 8.32949 | 8.85853 | 24780 ft | 495 kts | 105° |
| 2026-05-03 22:00 | 8.32038 | 8.89214 | 24945 ft | 497 kts | 105° |
| 2026-05-03 22:00 | 8.31125 | 8.92587 | 25095 ft | 499 kts | 104° |
| 2026-05-03 22:01 | 8.30209 | 8.95967 | 25274 ft | 500 kts | 105° |
| 2026-05-03 22:01 | 8.29291 | 8.99354 | 25448 ft | 501 kts | 105° |
| 2026-05-03 22:01 | 8.28351 | 9.02748 | 25570 ft | 503 kts | 107° |
| 2026-05-03 22:01 | 8.27172 | 9.06093 | 25675 ft | 505 kts | 111° |
| 2026-05-03 22:02 | 8.25857 | 9.09375 | 25815 ft | 507 kts | 111° |
| 2026-05-03 22:02 | 8.24518 | 9.12670 | 25949 ft | 508 kts | 112° |
| 2026-05-03 22:02 | 8.23189 | 9.15940 | 26073 ft | 509 kts | 112° |
| 2026-05-03 22:02 | 8.21836 | 9.19287 | 26223 ft | 510 kts | 111° |
| 2026-05-03 22:03 | 8.20515 | 9.22578 | 26328 ft | 512 kts | 111° |
| 2026-05-03 22:03 | 8.19180 | 9.25918 | 26415 ft | 514 kts | 111° |
| 2026-05-03 22:03 | 8.17845 | 9.29270 | 26530 ft | 515 kts | 111° |
| 2026-05-03 22:03 | 8.16507 | 9.32631 | 26632 ft | 516 kts | 111° |
| 2026-05-03 22:04 | 8.15167 | 9.35996 | 26753 ft | 517 kts | 111° |
| 2026-05-03 22:04 | 8.13824 | 9.39368 | 26836 ft | 518 kts | 111° |
| 2026-05-03 22:04 | 8.12477 | 9.42746 | 26889 ft | 519 kts | 111° |
| 2026-05-03 22:04 | 8.11130 | 9.46123 | 27032 ft | 518 kts | 111° |
| 2026-05-03 22:05 | 8.09786 | 9.49488 | 27291 ft | 516 kts | 111° |
| 2026-05-03 22:05 | 8.08464 | 9.52799 | 27566 ft | 513 kts | 111° |
| 2026-05-03 22:05 | 8.07119 | 9.56167 | 27815 ft | 511 kts | 111° |
| 2026-05-03 22:05 | 8.05790 | 9.59495 | 28010 ft | 511 kts | 111° |
| 2026-05-03 22:06 | 8.04479 | 9.62777 | 28191 ft | 511 kts | 111° |
| 2026-05-03 22:06 | 8.03149 | 9.66103 | 28375 ft | 511 kts | 111° |
| 2026-05-03 22:06 | 8.01820 | 9.69429 | 28564 ft | 511 kts | 111° |
| 2026-05-03 22:06 | 8.00491 | 9.72752 | 28772 ft | 510 kts | 111° |
| 2026-05-03 22:07 | 7.97832 | 9.79397 | 28897 ft | 510 kts | 111° |
| 2026-05-03 22:07 | 7.95176 | 9.86030 | 28913 ft | 509 kts | 111° |
| 2026-05-03 22:08 | 7.92523 | 9.92650 | 28926 ft | 508 kts | 111° |
| 2026-05-03 22:08 | 7.89878 | 9.99254 | 28922 ft | 507 kts | 111° |
| 2026-05-03 22:09 | 7.87305 | 10.05672 | 28925 ft | 507 kts | 111° |
| 2026-05-03 22:10 | 7.83338 | 10.15562 | 28924 ft | 507 kts | 111° |
| 2026-05-03 22:10 | 7.80692 | 10.22150 | 28925 ft | 507 kts | 111° |
| 2026-05-03 22:11 | 7.78046 | 10.28737 | 28926 ft | 507 kts | 111° |
| 2026-05-03 22:11 | 7.75397 | 10.35330 | 28930 ft | 507 kts | 111° |
| 2026-05-03 22:12 | 7.72743 | 10.41930 | 28937 ft | 508 kts | 111° |
| 2026-05-03 22:12 | 7.70084 | 10.48537 | 28938 ft | 508 kts | 111° |
| 2026-05-03 22:13 | 7.67424 | 10.55143 | 28946 ft | 508 kts | 111° |
| 2026-05-03 22:13 | 7.64760 | 10.61753 | 28949 ft | 509 kts | 112° |
| 2026-05-03 22:14 | 7.62097 | 10.68355 | 28957 ft | 509 kts | 112° |
| 2026-05-03 22:14 | 7.59449 | 10.74919 | 28960 ft | 509 kts | 112° |
| 2026-05-03 22:15 | 7.56785 | 10.81516 | 28964 ft | 508 kts | 112° |
| 2026-05-03 22:15 | 7.54116 | 10.88126 | 28969 ft | 508 kts | 112° |
| 2026-05-03 22:16 | 7.51451 | 10.94722 | 28970 ft | 508 kts | 112° |
| 2026-05-03 22:16 | 7.48785 | 11.01316 | 28975 ft | 508 kts | 112° |
| 2026-05-03 22:17 | 7.46117 | 11.07912 | 28969 ft | 507 kts | 111° |
| 2026-05-03 22:17 | 7.43470 | 11.14452 | 28973 ft | 507 kts | 111° |
| 2026-05-03 22:18 | 7.40803 | 11.21040 | 28974 ft | 507 kts | 111° |
| 2026-05-03 22:18 | 7.38569 | 11.26556 | 28974 ft | 507 kts | 111° |
| 2026-05-03 22:19 | 7.35920 | 11.33093 | 28978 ft | 508 kts | 111° |
| 2026-05-03 22:19 | 7.33249 | 11.39680 | 28980 ft | 508 kts | 111° |
| 2026-05-03 22:20 | 7.30577 | 11.46267 | 28985 ft | 508 kts | 111° |
| 2026-05-03 22:20 | 7.27905 | 11.52850 | 28990 ft | 508 kts | 112° |
| 2026-05-03 22:21 | 7.25228 | 11.59443 | 28995 ft | 508 kts | 112° |
| 2026-05-03 22:21 | 7.22552 | 11.66031 | 29004 ft | 508 kts | 112° |
| 2026-05-03 22:22 | 7.19897 | 11.72561 | 29012 ft | 507 kts | 112° |
| 2026-05-03 22:22 | 7.17240 | 11.79149 | 29014 ft | 507 kts | 111° |
| 2026-05-03 22:23 | 7.14624 | 11.85740 | 29021 ft | 507 kts | 112° |
| 2026-05-03 22:23 | 7.11950 | 11.92315 | 29026 ft | 507 kts | 112° |
| 2026-05-03 22:24 | 7.09264 | 11.98876 | 29023 ft | 506 kts | 112° |
| 2026-05-03 22:24 | 7.06583 | 12.05439 | 29022 ft | 506 kts | 112° |
| 2026-05-03 22:25 | 7.03915 | 12.11982 | 29019 ft | 505 kts | 112° |
| 2026-05-03 22:25 | 7.01243 | 12.18535 | 29014 ft | 505 kts | 112° |
| 2026-05-03 22:26 | 6.98576 | 12.25069 | 29009 ft | 505 kts | 112° |
| 2026-05-03 22:26 | 6.95907 | 12.31605 | 29002 ft | 505 kts | 112° |
| 2026-05-03 22:27 | 6.93237 | 12.38142 | 29002 ft | 505 kts | 112° |
| 2026-05-03 22:27 | 6.90582 | 12.44637 | 28993 ft | 505 kts | 112° |
| 2026-05-03 22:28 | 6.87891 | 12.51215 | 28994 ft | 505 kts | 112° |
| 2026-05-03 22:28 | 6.85216 | 12.57757 | 28988 ft | 506 kts | 112° |
| 2026-05-03 22:29 | 6.82561 | 12.64263 | 28990 ft | 506 kts | 112° |
| 2026-05-03 22:29 | 6.79887 | 12.70813 | 28986 ft | 506 kts | 112° |
| 2026-05-03 22:30 | 6.77207 | 12.77367 | 28986 ft | 506 kts | 112° |
| 2026-05-03 22:30 | 6.74530 | 12.83913 | 28983 ft | 506 kts | 112° |
| 2026-05-03 22:31 | 6.71849 | 12.90464 | 28983 ft | 506 kts | 112° |
| 2026-05-03 22:31 | 6.69162 | 12.97026 | 28977 ft | 507 kts | 112° |
| 2026-05-03 22:32 | 6.66479 | 13.03578 | 28983 ft | 507 kts | 112° |
| 2026-05-03 22:32 | 6.63809 | 13.10094 | 28977 ft | 507 kts | 112° |
| 2026-05-03 22:33 | 6.61124 | 13.16646 | 28981 ft | 506 kts | 112° |
| 2026-05-03 22:33 | 6.58439 | 13.23193 | 28977 ft | 506 kts | 112° |
| 2026-05-03 22:34 | 6.55754 | 13.29738 | 28976 ft | 506 kts | 112° |
| 2026-05-03 22:34 | 6.53068 | 13.36281 | 28972 ft | 506 kts | 112° |
| 2026-05-03 22:35 | 6.50379 | 13.42831 | 28972 ft | 506 kts | 112° |
| 2026-05-03 22:35 | 6.47711 | 13.49324 | 28970 ft | 505 kts | 112° |
| 2026-05-03 22:36 | 6.45027 | 13.55853 | 28970 ft | 505 kts | 112° |
| 2026-05-03 22:36 | 6.42339 | 13.62388 | 28971 ft | 505 kts | 112° |
| 2026-05-03 22:37 | 6.39672 | 13.68873 | 28970 ft | 506 kts | 112° |
| 2026-05-03 22:37 | 6.36966 | 13.75408 | 28966 ft | 506 kts | 112° |
| 2026-05-03 22:38 | 6.34254 | 13.81926 | 28971 ft | 506 kts | 112° |
| 2026-05-03 22:38 | 6.31539 | 13.88453 | 28971 ft | 506 kts | 112° |
| 2026-05-03 22:39 | 6.28822 | 13.94985 | 28966 ft | 506 kts | 112° |
| 2026-05-03 22:39 | 6.26106 | 14.01520 | 28965 ft | 506 kts | 112° |
| 2026-05-03 22:40 | 6.23410 | 14.08058 | 28971 ft | 506 kts | 112° |
| 2026-05-03 22:40 | 6.20721 | 14.14591 | 28964 ft | 506 kts | 112° |
| 2026-05-03 22:41 | 6.18024 | 14.21131 | 28974 ft | 506 kts | 112° |
| 2026-05-03 22:41 | 6.15320 | 14.27680 | 28977 ft | 506 kts | 112° |
| 2026-05-03 22:42 | 6.12638 | 14.34173 | 28974 ft | 506 kts | 112° |
| 2026-05-03 22:42 | 6.09935 | 14.40715 | 28977 ft | 506 kts | 112° |
| 2026-05-03 22:43 | 6.07230 | 14.47257 | 28974 ft | 506 kts | 112° |
| 2026-05-03 22:43 | 6.04523 | 14.53803 | 28975 ft | 506 kts | 112° |
| 2026-05-03 22:44 | 6.01820 | 14.60336 | 28974 ft | 506 kts | 112° |
| 2026-05-03 22:44 | 5.99134 | 14.66825 | 28978 ft | 506 kts | 112° |
| 2026-05-03 22:45 | 5.96427 | 14.73362 | 28975 ft | 506 kts | 112° |
| 2026-05-03 22:45 | 5.93721 | 14.79894 | 28976 ft | 506 kts | 112° |
| 2026-05-03 22:46 | 5.91019 | 14.86413 | 28975 ft | 506 kts | 112° |
| 2026-05-03 22:46 | 5.88309 | 14.92949 | 28972 ft | 506 kts | 112° |
| 2026-05-03 22:47 | 5.85619 | 14.99428 | 28965 ft | 499 kts | 112° |
| 2026-05-03 22:47 | 5.82951 | 15.05853 | 28972 ft | 498 kts | 112° |
| 2026-05-03 22:48 | 5.80277 | 15.12289 | 28967 ft | 499 kts | 112° |
| 2026-05-03 22:48 | 5.77619 | 15.18683 | 28959 ft | 499 kts | 112° |
| 2026-05-03 22:49 | 5.74941 | 15.25122 | 28960 ft | 500 kts | 112° |
| 2026-05-03 22:49 | 5.72262 | 15.31563 | 28957 ft | 500 kts | 112° |